Terminal Aerodrome Forecast
Issued by NWS

Home | Current Version | Previous Version | Text Only | Print | Product List | Glossary On
Versions: 1 2 3 4 5 6 7 8 9 10 11 12 13 14 15 16 17 18 19 20
000
FTUS46 KSEW 310800 AAA
TAFPAE
TAF AMD
KPAE 310855Z 3109/0106 12005KT P6SM VCSH SCT015 SCT025 OVC050
      TEMPO 3109/3111 4SM BR SCT015 OVC025
     FM311100 VRB04KT 5SM BR BKN015 OVC025
     FM311800 18006KT P6SM SCT018 BKN028 BKN045
     FM312100 18008KT P6SM SCT030 BKN060
     FM010000 33006KT P6SM VCSH BKN030 OVC045=

USA.gov is the U.S. government's official web portal to all federal, state and local government web resources and services.